createdAt,value
2022-12-15T00:10:02.238Z,78.55
2022-12-15T00:20:25.536Z,78.60
2022-12-15T00:30:49.896Z,78.28
2022-12-15T00:40:59.624Z,78.13
2022-12-15T00:51:04.058Z,78.18
2022-12-15T01:01:30.502Z,78.96
2022-12-15T01:11:53.036Z,78.55
2022-12-15T01:21:57.113Z,78.62
2022-12-15T01:32:01.661Z,79.17
2022-12-15T01:42:05.685Z,79.18
2022-12-15T01:52:11.088Z,78.93
2022-12-15T02:02:16.663Z,79.01
2022-12-15T02:12:32.354Z,79.23
2022-12-15T02:22:48.287Z,79.24
2022-12-15T02:33:01.854Z,79.00
2022-12-15T02:43:07.277Z,79.27
2022-12-15T02:53:23.506Z,79.32
2022-12-15T03:03:29.876Z,79.04
2022-12-15T03:13:34.463Z,79.14
2022-12-15T03:23:39.003Z,78.98
2022-12-15T03:33:42.930Z,79.32
2022-12-15T03:43:49.583Z,79.61
2022-12-15T03:53:54.912Z,79.17
2022-12-15T04:04:01.224Z,79.05
2022-12-15T04:14:05.513Z,79.45
2022-12-15T04:24:28.415Z,78.91
2022-12-15T04:34:51.002Z,79.22
2022-12-15T04:45:21.035Z,79.44
2022-12-15T04:55:43.736Z,79.29
2022-12-15T05:06:06.776Z,78.98
2022-12-15T05:16:29.390Z,78.98
2022-12-15T05:26:53.187Z,79.18
2022-12-15T05:36:59.508Z,78.86
2022-12-15T05:47:05.238Z,78.81
2022-12-15T05:57:09.834Z,78.55
2022-12-15T06:07:13.896Z,78.53
2022-12-15T06:17:17.977Z,78.42
2022-12-15T06:27:22.166Z,78.74
2022-12-15T06:37:26.535Z,79.04
2022-12-15T06:47:30.442Z,78.86
2022-12-15T06:57:34.456Z,78.85
2022-12-15T07:07:38.461Z,78.43
2022-12-15T07:17:42.625Z,79.13
2022-12-15T07:27:47.409Z,78.86
2022-12-15T07:37:51.784Z,78.44
2022-12-15T07:47:55.965Z,78.98
2022-12-15T07:58:00.134Z,79.40
2022-12-15T08:08:04.532Z,79.38
2022-12-15T08:18:09.824Z,79.21
2022-12-15T08:28:13.910Z,79.10
2022-12-15T08:38:17.803Z,78.51
2022-12-15T08:48:21.919Z,78.40
2022-12-15T08:58:25.957Z,78.21
2022-12-15T09:08:31.245Z,77.56
2022-12-15T09:18:35.889Z,77.43
2022-12-15T09:28:40.279Z,77.65
2022-12-15T09:38:45.240Z,77.32
2022-12-15T09:48:50.805Z,77.35
2022-12-15T09:59:14.693Z,76.60
2022-12-15T10:09:22.097Z,76.18
2022-12-15T10:19:42.790Z,75.09
2022-12-15T10:29:55.665Z,74.58
2022-12-15T10:39:59.642Z,74.77
2022-12-15T10:50:25.158Z,74.17
2022-12-15T11:00:32.574Z,74.60
2022-12-15T11:10:55.253Z,74.29
2022-12-15T11:21:12.882Z,74.71
2022-12-15T11:31:32.362Z,73.95
2022-12-15T11:41:45.440Z,74.16
2022-12-15T11:52:27.070Z,75.38
2022-12-15T12:02:37.503Z,75.82
2022-12-15T12:13:23.457Z,75.81
2022-12-15T12:23:44.985Z,76.60
2022-12-15T12:33:56.242Z,77.44
2022-12-15T12:44:19.732Z,77.95
2022-12-15T12:54:38.801Z,78.14
2022-12-15T13:04:49.980Z,78.65
2022-12-15T13:14:55.385Z,78.85
2022-12-15T13:24:59.481Z,78.75
2022-12-15T13:35:13.263Z,78.62
2022-12-15T13:45:38.568Z,78.77
2022-12-15T13:55:59.172Z,79.53
2022-12-15T14:06:03.459Z,79.30
2022-12-15T14:16:22.725Z,80.11
2022-12-15T14:26:32.073Z,80.67
2022-12-15T14:36:37.135Z,80.69
2022-12-15T14:46:45.816Z,81.17
2022-12-15T14:57:00.147Z,80.99
2022-12-15T15:07:08.062Z,81.40
2022-12-15T15:17:17.308Z,81.06
2022-12-15T15:27:25.719Z,81.40
2022-12-15T15:37:29.743Z,81.79
2022-12-15T15:47:34.029Z,81.93
2022-12-15T15:57:38.096Z,82.40
2022-12-15T16:07:44.203Z,83.04
2022-12-15T16:17:48.810Z,83.33
2022-12-15T16:27:52.562Z,83.38
2022-12-15T16:37:57.078Z,83.08
2022-12-15T16:48:02.181Z,83.51
2022-12-15T16:58:07.669Z,83.19
2022-12-15T17:08:28.389Z,82.92
2022-12-15T17:18:34.268Z,83.25
2022-12-15T17:28:38.675Z,83.13
2022-12-15T17:38:43.296Z,83.37
2022-12-15T17:48:48.185Z,83.32
2022-12-15T17:58:52.727Z,83.30
2022-12-15T18:08:57.282Z,83.20
2022-12-15T18:19:03.469Z,83.61
2022-12-15T18:29:18.343Z,83.28
2022-12-15T18:39:24.628Z,83.30
2022-12-15T18:49:29.412Z,83.35
2022-12-15T18:59:34.569Z,83.11
2022-12-15T19:09:39.358Z,82.95
2022-12-15T19:20:05.768Z,82.67
2022-12-15T19:30:19.334Z,82.55
2022-12-15T19:40:30.644Z,82.75
2022-12-15T19:50:38.108Z,82.51
2022-12-15T20:00:46.306Z,82.17
2022-12-15T20:10:52.537Z,81.72
2022-12-15T20:20:59.857Z,81.92
2022-12-15T20:31:05.035Z,81.03
2022-12-15T20:41:21.918Z,81.83
2022-12-15T20:51:32.383Z,81.49
2022-12-15T21:01:43.528Z,81.09
2022-12-15T21:11:49.304Z,81.41
2022-12-15T21:21:55.895Z,81.89
2022-12-15T21:32:00.435Z,82.30
2022-12-15T21:42:08.760Z,82.60
2022-12-15T21:52:12.984Z,82.40
2022-12-15T22:02:22.843Z,82.59
2022-12-15T22:12:28.481Z,82.69
2022-12-15T22:22:32.167Z,82.55
2022-12-15T22:32:36.493Z,82.69
2022-12-15T22:42:44.624Z,83.02
2022-12-15T22:52:49.426Z,82.86
2022-12-15T23:02:54.145Z,82.76
2022-12-15T23:12:59.464Z,83.12
2022-12-15T23:23:04.631Z,82.72
2022-12-15T23:33:09.315Z,83.05
2022-12-15T23:43:14.077Z,82.65
2022-12-15T23:53:18.574Z,81.47
